Center Ossipee, NH

11:53 PM EDT on October 21, 2014 (GMT -0400)
Laconia Municipal | Change Station
CLOSE
Current Station
Airport
Location: Laconia,
Elevation: 545 ft
Nearby Weather Stations
Active Advisory: Areal Flood Watch

Elev 545 ft 43.57 °N, 71.42 °W | Updated 18 minutes ago

Rain
Rain
48 °F
Feels Like 48 °F
N
8
Wind Variable Wind from ENE

Today
High -- | Low -- °F
--% Chance of Precip.
Yesterday
High -- | Low -- °F
Precip. -- in
7:06 AM 5:51 PM
Waning Crescent, 3% visible
Pressure 30.05 in
Visibility 8.0 miles
Clouds Scattered Clouds 1300 ft
Overcast 2000 ft
Dew Point 45 °F
Humidity 87%
Rainfall 0.00 in
Snow Depth Not available.
UV 0 out of 12
Pollen .10 out of 12
Air Quality Not available.
Flu Activity Local Activity
METAR KLCI 220335Z AUTO 06007KT 8SM SCT013 OVC020 09/07 A3005 RMK AO1

More Conditions Fewer Conditions

Pressure 30.05 in
Visibility 8.0 miles
Clouds Scattered Clouds 1300 ft
Overcast 2000 ft
Dew Point 45 °F
Humidity 87%
Rainfall 0.00 in
Snow Depth Not available.
UV 0 out of 12
Pollen .10 out of 12
Air Quality Not available.
Flu Activity Local Activity
METAR KLCI 220335Z AUTO 06007KT 8SM SCT013 OVC020 09/07 A3005 RMK AO1

More Conditions Fewer Conditions

10-Day Weather Forecast

Almanac

Astronomy

Oct. 21, 2014 Rise Set
Actual Time 7:06 AM EDT 5:51 PM EDT
Civil Twilight 6:36 AM EDT 6:20 PM EDT
Nautical Twilight 6:03 AM EDT 6:53 PM EDT
Astronomical Twilight 5:30 AM EDT 7:27 PM EDT
Moon 4:43 AM EDT (10/21) 4:47 PM EDT (10/21)
Length of Visible Light 11h 43m
Length of Day
10h 45m
Tomorrow will be 2m 50s shorter.
Waning Crescent, 3% of the Moon is Illuminated
Today
Waning Crescent
Oct 23
New
Oct 30
First Quarter
Nov 6
Full
Nov 14
Last Quarter

Today's Extremes

State Highs State Lows

Community

WunderPhotos

Upload Photos

1,763,874 photos uploaded!

Nearby

Air Quality

  Air Quality AQ Index Pollutant
Tuesday Good
PM2.5
Tuesday Good
OZONE
Wednesday Good
PM2.5
Wednesday Good
OZONE

Snow Depth

Station Depth Elevation
No new snow has been reported.

Earthquake Activity

City Distance Mag. Time & Date
No recent earthquake activity has been reported nearby.
Minimum magnitude displayed is 2.5.

Coastal Water Temperatures

Place Temperature
No Stations Reporting

Nearby Weather Stations